Aérodrome :
LOGIN :

S'inscrire | Disclaimer

   EN    FR    IT 

 










Légende :    VFR   VFR Marginal   IFR   IFR Intensif   IFR Très Intensif
Visi : 
Plafond : 
>= 8 km
>= 3000ft
5 à 8 km
1000 à 3000 ft
1500m à 5 km
500 à 1000 ft
800 à 1500m
200 à 500 ft
< 800m
< 200 ft
Symboles :   Orages  Brouillard  Fortes neiges  Fortes précipitations  Vent > 20 kt
SIGMETs :   Divers  Orages  Givrage  Turbulence  Onde Orograph.  Cendres Volcan.






- Altitude de l'aérodrome : 288 ft
- Code IATA : BZZ


EGVN - RAF Brize Norton

DERNIER METAR :
  • 300050Z 06008KT CAVOK 12/02 Q1025 NOSIG RMK BLU BLU

METARs EXPIRÉS :
  • 292350Z 05005KT CAVOK 13/02 Q1025 NOSIG RMK BLU BLU
  • 292320Z 06006KT CAVOK 13/01 Q1025 NOSIG RMK BLU BLU
  • 292250Z 06006KT CAVOK 14/02 Q1025 NOSIG RMK BLU BLU
  • 292220Z 08005KT CAVOK 14/03 Q1025 NOSIG RMK BLU BLU

TAF TAF EGVN
Valide du 30 à 00h jusqu'au 31 à 00h UTC


292226Z 3000/3024 07006KT CAVOK



MET'MAP, la Météo Aéronautique d'un coup d'oeil ! - Copyright ORBIFLY Décembre 2007 - Disclaimer

ORBIFLY MET'MAP TEAM :

Programmation & Développement : Alexandra Zaïnal
Sur une idée originale de : Baudouin d'Aumeries
Assistance à la programmation : Marc-Olivier Méhu
Soutien technique & logistique : Manuel Goepfert

Contact : metmap@orbifly.com




SOURCES & CREDITS :

   NOAA